tititudorancea.com
Station Historical Data
Daily Summary for February 27, 2018 Units:  Metric    English   Both
« Previous Day
Next Day »
Daily Weekly Monthly Yearly Custom
  High: Low: Average:
Temperature: -17.8 °C 11.8 °C 22.2 °C
Dew Point: -17.8 °C 7.4 °C 9.8 °C
Humidity: Humidity % 23 % 51 %
Wind Speed: 0 km/h 0 km/h 7.9 km/h
Wind Gust: 0 km/h - -
Wind:- - SSE
Pressure: 0 hPa 1006.3 hPa -
Precipitation: 0 mm    
Historical Graphs
 
 
Ararat weather Find more about Weather in Ararat, AU


 



 


Tabular Data for February 27, 2018
Time Temperature Dew Point Pressure Wind Wind Speed Wind Gust Humidity Rainfall Rate (Hourly)
-17.8 °C -17.8 °C 0 hPa Calm     Humidity % 0 mm
00:03 16.6 °C 11.5 °C 1013.1 hPa Calm     72 % 0 mm
00:08 16.4 °C 11.1 °C 1013.1 hPa Calm     71 % 0 mm
00:13 16.2 °C 11.2 °C 1013.1 hPa Calm     72 % 0 mm
00:18 16.1 °C 11.2 °C 1012.8 hPa Calm     73 % 0 mm
00:23 15.9 °C 11.3 °C 1012.8 hPa Calm     74 % 0 mm
00:28 15.8 °C 11.2 °C 1012.8 hPa Calm     74 % 0 mm
00:33 15.7 °C 11.2 °C 1012.8 hPa Calm     75 % 0 mm
00:38 15.5 °C 11.3 °C 1012.8 hPa Calm     76 % 0 mm
00:43 15.4 °C 11.4 °C 1012.8 hPa Calm     77 % 0 mm
00:48 15.2 °C 11.2 °C 1012.8 hPa SSE 2.4 km/h 3.7 km/h 77 % 0 mm
00:53 15.1 °C 11.3 °C 1012.8 hPa North 2.3 km/h 3.7 km/h 78 % 0 mm
00:58 15.1 °C 11.5 °C 1012.8 hPa Calm   1.9 km/h 79 % 0 mm
01:03 15 °C 11.4 °C 1012.8 hPa SSE 1.8 km/h 3.7 km/h 79 % 0 mm
01:08 14.9 °C 11.3 °C 1012.4 hPa Calm     79 % 0 mm
01:13 14.8 °C 11.2 °C 1012.4 hPa Calm     79 % 0 mm
01:14 14.8 °C 11.2 °C 1012.4 hPa Calm     79 % 0 mm
01:19 14.6 °C 11 °C 1012.4 hPa Calm     79 % 0 mm
01:24 14.4 °C 11 °C 1012.4 hPa Calm     80 % 0 mm
01:29 14.3 °C 10.9 °C 1012.4 hPa Calm     80 % 0 mm
01:34 14.1 °C 10.9 °C 1012.4 hPa SSE 1.9 km/h 3.7 km/h 81 % 0 mm
01:39 14.1 °C 11.1 °C 1012.4 hPa Calm     82 % 0 mm
01:44 13.9 °C 10.9 °C 1012.1 hPa Calm     82 % 0 mm
01:49 13.8 °C 10.8 °C 1012.4 hPa Calm     82 % 0 mm
01:54 13.7 °C 10.8 °C 1012.4 hPa Calm     83 % 0 mm
01:59 13.6 °C 10.7 °C 1012.4 hPa Calm     83 % 0 mm
02:04 13.4 °C 10.8 °C 1012.4 hPa Calm     84 % 0 mm
02:09 13.4 °C 10.7 °C 1012.1 hPa SSE 1 km/h 3.7 km/h 84 % 0 mm
02:14 13.3 °C 10.9 °C 1012.1 hPa Calm     85 % 0 mm
02:19 13.3 °C 10.6 °C 1012.1 hPa SSE 0.8 km/h 1.9 km/h 84 % 0 mm
02:24 13.3 °C 10.8 °C 1012.1 hPa SSE 1.6 km/h 5.6 km/h 85 % 0 mm
02:29 13.6 °C 11.3 °C 1012.4 hPa SSE 6.4 km/h 7.4 km/h 86 % 0 mm
02:34 14.3 °C 11.6 °C 1012.4 hPa SSE 6.8 km/h 8 km/h 84 % 0 mm
02:39 15.2 °C 11.7 °C 1012.4 hPa SSE 1 km/h 5.6 km/h 80 % 0 mm
02:44 15.7 °C 11.7 °C 1012.1 hPa SSE 0.2 km/h 3.7 km/h 77 % 0 mm
02:49 16 °C 11.6 °C 1012.1 hPa SSE 4.2 km/h 6.4 km/h 75 % 0 mm
02:54 16.1 °C 11.3 °C 1012.1 hPa SSE 0.5 km/h 3.7 km/h 73 % 0 mm
02:59 16.1 °C 11.2 °C 1012.1 hPa SSE 0.8 km/h 3.7 km/h 73 % 0 mm
03:04 15.9 °C 10.9 °C 1012.1 hPa SSE 2.4 km/h 3.7 km/h 72 % 0 mm
03:09 15.7 °C 10.8 °C 1012.1 hPa Calm     73 % 0 mm
03:14 15.4 °C 10.8 °C 1012.1 hPa Calm     74 % 0 mm
03:19 15.1 °C 10.4 °C 1012.1 hPa Calm     74 % 0 mm
03:24 14.6 °C 10 °C 1011.7 hPa Calm     74 % 0 mm
03:29 14.1 °C 9.9 °C 1011.7 hPa Calm     76 % 0 mm
03:34 13.7 °C 9.9 °C 1011.7 hPa Calm     78 % 0 mm
03:39 13.3 °C 9.8 °C 1012.1 hPa Calm     79 % 0 mm
03:44 13 °C 9.6 °C 1012.1 hPa Calm     80 % 0 mm
03:49 12.8 °C 9.6 °C 1012.1 hPa Calm     81 % 0 mm
03:54 12.6 °C 9.6 °C 1012.1 hPa Calm     82 % 0 mm
03:59 12.5 °C 9.5 °C 1012.1 hPa SSE 0.5 km/h 3.7 km/h 82 % 0 mm
04:04 12.6 °C 9.9 °C 1012.1 hPa Calm   3.7 km/h 84 % 0 mm
04:10 12.7 °C 10.3 °C 1012.1 hPa SSE 1.1 km/h 5.6 km/h 85 % 0 mm
04:15 12.9 °C 10.4 °C 1012.1 hPa Calm     85 % 0 mm
04:20 13.2 °C 10.5 °C 1012.1 hPa SSE 0.6 km/h 1.9 km/h 84 % 0 mm
04:25 13.4 °C 10.8 °C 1012.1 hPa Calm     84 % 0 mm
04:30 13.6 °C 10.7 °C 1012.1 hPa Calm     83 % 0 mm
04:35 13.6 °C 10.6 °C 1012.1 hPa Calm     82 % 0 mm
04:40 13.6 °C 10.6 °C 1012.1 hPa Calm     82 % 0 mm
04:45 13.6 °C 10.6 °C 1012.1 hPa Calm     82 % 0 mm
04:50 13.6 °C 10.6 °C 1012.1 hPa Calm     82 % 0 mm
04:55 13.7 °C 10.7 °C 1012.1 hPa Calm     82 % 0 mm
05:00 13.6 °C 10.4 °C 1012.1 hPa Calm     81 % 0 mm
05:05 13.5 °C 10.3 °C 1012.1 hPa Calm     81 % 0 mm
05:10 13.3 °C 10.3 °C 1012.1 hPa Calm     82 % 0 mm
05:15 13.3 °C 10.3 °C 1012.1 hPa Calm     82 % 0 mm
05:20 13.2 °C 10.2 °C 1012.1 hPa Calm     82 % 0 mm
05:25 13.1 °C 10.1 °C 1012.1 hPa Calm     82 % 0 mm
05:30 12.9 °C 9.9 °C 1012.1 hPa Calm     82 % 0 mm
05:35 12.8 °C 9.9 °C 1012.1 hPa Calm     83 % 0 mm
05:40 12.6 °C 9.8 °C 1012.1 hPa Calm     83 % 0 mm
05:45 12.4 °C 9.6 °C 1012.1 hPa Calm     83 % 0 mm
05:50 12.2 °C 9.4 °C 1012.1 hPa Calm     83 % 0 mm
05:55 12.1 °C 9.5 °C 1012.1 hPa Calm     84 % 0 mm
06:00 12.1 °C 9.7 °C 1012.1 hPa Calm     85 % 0 mm
06:05 12 °C 9.6 °C 1012.1 hPa Calm     85 % 0 mm
06:10 11.9 °C 9.4 °C 1012.1 hPa Calm     85 % 0 mm
06:15 11.9 °C 9.6 °C 1012.1 hPa Calm     86 % 0 mm
06:20 11.8 °C 9.6 °C 1012.1 hPa Calm     86 % 0 mm
06:25 11.9 °C 9.8 °C 1012.1 hPa Calm     87 % 0 mm
06:30 12.2 °C 10.1 °C 1012.1 hPa Calm     87 % 0 mm
06:35 12.4 °C 10.3 °C 1012.1 hPa SSE 1.3 km/h 3.7 km/h 87 % 0 mm
06:40 12.5 °C 10.2 °C 1012.1 hPa SSE 1.8 km/h 3.7 km/h 86 % 0 mm
06:45 12.6 °C 10.1 °C 1012.1 hPa SSE 1.8 km/h 3.7 km/h 85 % 0 mm
06:50 12.6 °C 10.1 °C 1012.1 hPa Calm   1.9 km/h 85 % 0 mm
06:55 12.6 °C 10.1 °C 1012.1 hPa Calm     85 % 0 mm
07:00 12.6 °C 10.1 °C 1012.1 hPa Calm     85 % 0 mm
07:05 12.6 °C 10.2 °C 1012.4 hPa SSE 1.4 km/h 1.9 km/h 85 % 0 mm
07:10 12.6 °C 10.2 °C 1012.4 hPa SSE 0.3 km/h 1.9 km/h 85 % 0 mm
07:15 12.7 °C 10.2 °C 1012.4 hPa Calm     85 % 0 mm
07:20 12.6 °C 10 °C 1012.4 hPa Calm   1.6 km/h 84 % 0 mm
07:25 12.7 °C 10.1 °C 1012.8 hPa Calm     84 % 0 mm
07:30 12.8 °C 10.3 °C 1012.4 hPa SSE 2.3 km/h 3.7 km/h 85 % 0 mm
07:35 12.9 °C 10.3 °C 1012.8 hPa SSE 1.1 km/h 3.7 km/h 84 % 0 mm
07:40 13.2 °C 10.6 °C 1012.8 hPa SSE 3.9 km/h 5.6 km/h 84 % 0 mm
07:46 13.9 °C 10.9 °C 1012.8 hPa SSE 5.6 km/h 8 km/h 82 % 0 mm
07:51 14.6 °C 11 °C 1012.8 hPa SSE 4.5 km/h 7.4 km/h 79 % 0 mm
07:56 15.3 °C 11.1 °C 1013.1 hPa SSE 5.3 km/h 11.1 km/h 76 % 0 mm
08:01 15.8 °C 11.3 °C 1013.1 hPa SSE 6 km/h 9.3 km/h 75 % 0 mm
08:06 16.8 °C 11.3 °C 1013.1 hPa SSE 8.9 km/h 11.1 km/h 70 % 0 mm
08:11 17.6 °C 11.3 °C 1013.1 hPa East 7.7 km/h 9.3 km/h 67 % 0 mm
08:16 18.1 °C 11.4 °C 1013.1 hPa NE 7.4 km/h 16.7 km/h 65 % 0 mm
08:21 18.4 °C 11.5 °C 1013.1 hPa NNE 5.6 km/h 13 km/h 64 % 0 mm
08:27 18.8 °C 11.6 °C 1013.1 hPa NNE 7.7 km/h 11.1 km/h 63 % 0 mm
08:32 19.1 °C 11.6 °C 1013.1 hPa NNE 4 km/h 5.6 km/h 62 % 0 mm
08:37 19.4 °C 11.7 °C 1013.4 hPa NNE 8.9 km/h 14.8 km/h 61 % 0 mm
08:42 19.7 °C 11.7 °C 1013.4 hPa North 5.8 km/h 7.4 km/h 60 % 0 mm
08:47 19.9 °C 11.7 °C 1013.8 hPa North 7.4 km/h 11.1 km/h 59 % 0 mm
08:52 20.1 °C 11.6 °C 1013.8 hPa North 8.5 km/h 16.1 km/h 58 % 0 mm
08:57 20.3 °C 11.8 °C 1013.4 hPa NNE 9.3 km/h 13 km/h 58 % 0 mm
09:02 20.6 °C 11.8 °C 1013.4 hPa NNE 7.7 km/h 14.5 km/h 57 % 0 mm
09:07 20.8 °C 11.4 °C 1013.4 hPa North 19.5 km/h 31.5 km/h 55 % 0 mm
09:12 20.8 °C 11.4 °C 1013.4 hPa NNE 17.9 km/h 25.9 km/h 55 % 0 mm
09:17 20.9 °C 11.8 °C 1013.4 hPa North 7.9 km/h 18.5 km/h 56 % 0 mm
09:22 21.2 °C 11.8 °C 1013.4 hPa North 8.5 km/h 17.7 km/h 55 % 0 mm
09:27 21.3 °C 11.7 °C 1013.8 hPa North 11.3 km/h 18.5 km/h 54 % 0 mm
09:32 21.5 °C 11.5 °C 1013.8 hPa North 19.3 km/h 25.9 km/h 53 % 0 mm
09:37 21.7 °C 11.7 °C 1013.8 hPa NNE 10.6 km/h 17.7 km/h 53 % 0 mm
09:42 22.1 °C 12.1 °C 1013.4 hPa NNW 12.7 km/h 16.7 km/h 53 % 0 mm
09:47 22.3 °C 11.7 °C 1013.8 hPa NNW 12.7 km/h 22.2 km/h 51 % 0 mm
09:52 22.4 °C 11.5 °C 1013.8 hPa NNE 21.7 km/h 27.8 km/h 50 % 0 mm
09:57 22.6 °C 11.3 °C 1013.8 hPa North 20.4 km/h 35.2 km/h 49 % 0 mm
10:02 22.8 °C 11.6 °C 1013.8 hPa North 13.8 km/h 22.2 km/h 49 % 0 mm
10:07 23.2 °C 11.6 °C 1013.4 hPa NE 15.9 km/h 24.1 km/h 48 % 0 mm
10:12 23.3 °C 11.3 °C 1013.4 hPa NNW 16.6 km/h 31.5 km/h 47 % 0 mm
10:17 23.4 °C 11.5 °C 1013.4 hPa North 12.2 km/h 18.5 km/h 47 % 0 mm
10:22 23.7 °C 11.4 °C 1013.4 hPa North 18.2 km/h 27.8 km/h 46 % 0 mm
10:27 24 °C 11.7 °C 1013.4 hPa North 14.3 km/h 22.5 km/h 46 % 0 mm
10:32 24.2 °C 11.5 °C 1013.8 hPa NW 20.6 km/h 29 km/h 45 % 0 mm
10:37 23.9 °C 11.2 °C 1013.8 hPa NW 20.8 km/h 31.5 km/h 45 % 0 mm
10:42 23.9 °C 11.6 °C 1013.8 hPa NW 19.3 km/h 24.1 km/h 46 % 0 mm
10:47 24.2 °C 11.5 °C 1013.8 hPa North 21.2 km/h 31.5 km/h 45 % 0 mm
10:52 24.3 °C 11.6 °C 1013.8 hPa North 15.9 km/h 29.6 km/h 45 % 0 mm
10:57 24.6 °C 11.8 °C 1013.8 hPa North 15.1 km/h 22.2 km/h 45 % 0 mm
11:02 24.6 °C 11.5 °C 1013.8 hPa NNW 11.7 km/h 27.8 km/h 44 % 0 mm
11:07 24.6 °C 11.5 °C 1013.8 hPa North 17.9 km/h 25.9 km/h 44 % 0 mm
11:12 25 °C 11.6 °C 1013.4 hPa NNE 15.6 km/h 25.9 km/h 43 % 0 mm
11:17 25.3 °C 11.5 °C 1013.4 hPa North 12.2 km/h 22.2 km/h 42 % 0 mm
11:22 25.4 °C 11.6 °C 1013.4 hPa NNW 13.7 km/h 24.1 km/h 42 % 0 mm
11:27 25.4 °C 11.6 °C 1013.4 hPa NNW 8.5 km/h 18.5 km/h 42 % 0 mm
11:32 25.6 °C 11.4 °C 1013.1 hPa North 20.4 km/h 25.9 km/h 41 % 0 mm
11:37 25.8 °C 11.5 °C 1013.1 hPa North 17.4 km/h 24.1 km/h 41 % 0 mm
11:42 25.9 °C 11.6 °C 1013.1 hPa North 10.1 km/h 22.2 km/h 41 % 0 mm
11:47 26.1 °C 11.4 °C 1013.1 hPa North 18 km/h 27.8 km/h 40 % 0 mm
11:52 26.4 °C 11.3 °C 1013.1 hPa North 11.6 km/h 24.1 km/h 39 % 0 mm
11:57 26.5 °C 11.4 °C 1013.1 hPa North 16.9 km/h 22.2 km/h 39 % 0 mm
12:02 26.6 °C 11.1 °C 1013.1 hPa North 17.1 km/h 31.5 km/h 38 % 0 mm
12:07 26.4 °C 10.9 °C 1012.8 hPa North 13.5 km/h 22.2 km/h 38 % 0 mm
12:12 26.6 °C 10.7 °C 1012.8 hPa North 21.6 km/h 31.5 km/h 37 % 0 mm
12:17 26.6 °C 11.1 °C 1012.4 hPa North 13.7 km/h 25.9 km/h 38 % 0 mm
12:22 26.6 °C 11.1 °C 1012.4 hPa North 19.6 km/h 25.9 km/h 38 % 0 mm
12:27 26.8 °C 11.3 °C 1012.4 hPa NNW 13.5 km/h 25.9 km/h 38 % 0 mm
12:32 26.8 °C 10.9 °C 1012.4 hPa North 17.1 km/h 31.5 km/h 37 % 0 mm
12:37 26.9 °C 11 °C 1012.4 hPa NW 14.8 km/h 24.1 km/h 37 % 0 mm
12:42 27.3 °C 10.9 °C 1012.4 hPa NNE 21.1 km/h 24.1 km/h 36 % 0 mm
12:47 27.4 °C 10.6 °C 1012.1 hPa North 23.2 km/h 33.3 km/h 35 % 0 mm
12:52 27.6 °C 10.7 °C 1012.1 hPa NNE 17.1 km/h 31.5 km/h 35 % 0 mm
12:57 27.7 °C 10.9 °C 1012.1 hPa NNW 9.8 km/h 22.2 km/h 35 % 0 mm
13:02 28 °C 10.7 °C 1012.1 hPa NNE 22 km/h 31.5 km/h 34 % 0 mm
13:07 28.1 °C 10.8 °C 1011.7 hPa NNE 19.5 km/h 22.2 km/h 34 % 0 mm
13:12 28.1 °C 11.2 °C 1011.7 hPa North 16.4 km/h 20.4 km/h 35 % 0 mm
13:17 28.1 °C 10.8 °C 1011.7 hPa NNW 13.2 km/h 20.4 km/h 34 % 0 mm
13:22 28.3 °C 11.3 °C 1011.4 hPa NNE 11.3 km/h 22.5 km/h 35 % 0 mm
13:27 28.7 °C 10.4 °C 1011.7 hPa North 21.7 km/h 31.5 km/h 32 % 0 mm
13:32 28.6 °C 10.7 °C 1011.4 hPa North 10.1 km/h 20.4 km/h 33 % 0 mm
13:37 28.7 °C 10.4 °C 1011.4 hPa North 18.5 km/h 22.2 km/h 32 % 0 mm
13:42 28.4 °C 10.6 °C 1011.4 hPa NNW 14.2 km/h 18.5 km/h 33 % 0 mm
13:47 28.8 °C 10.9 °C 1011.1 hPa NNE 7.6 km/h 22.2 km/h 33 % 0 mm
13:52 29 °C 10.2 °C 1011.4 hPa North 11.6 km/h 27.8 km/h 31 % 0 mm
13:57 29.1 °C 10.7 °C 1011.4 hPa NNW 14.8 km/h 20.9 km/h 32 % 0 mm
14:02 28.9 °C 10.6 °C 1011.1 hPa North 10.5 km/h 22.2 km/h 32 % 0 mm
14:07 29.1 °C 10.7 °C 1011.1 hPa NW 8 km/h 31.5 km/h 32 % 0 mm
14:12 29.2 °C 10.3 °C 1011.1 hPa North 23.7 km/h 35.2 km/h 31 % 0 mm
14:17 29.2 °C 10.3 °C 1010.7 hPa North 9.5 km/h 16.7 km/h 31 % 0 mm
14:22 29.4 °C 10.6 °C 1011.1 hPa North 11.6 km/h 22.2 km/h 31 % 0 mm
14:27 29.6 °C 10.6 °C 1010.7 hPa North 8.2 km/h 13 km/h 31 % 0 mm
14:32 29.9 °C 9.9 °C 1010.7 hPa NW 20 km/h 27.8 km/h 29 % 0 mm
14:37 29.6 °C 9.7 °C 1010.7 hPa NNE 10.5 km/h 29.6 km/h 29 % 0 mm
14:42 29.7 °C 9.7 °C 1010.7 hPa North 20.6 km/h 31.5 km/h 29 % 0 mm
14:47 29.7 °C 9.8 °C 1010.4 hPa North 11.6 km/h 25.9 km/h 29 % 0 mm
14:52 29.6 °C 9.7 °C 1010.4 hPa NNW 15.9 km/h 22.2 km/h 29 % 0 mm
14:57 29.7 °C 9.8 °C 1010.4 hPa North 13.8 km/h 13.8 km/h 29 % 0 mm
15:02 30.3 °C 9.7 °C 1010.4 hPa North 14.8 km/h 18.5 km/h 28 % 0 mm
15:07 30.4 °C 9.8 °C 1010 hPa NW 11.3 km/h 20.4 km/h 28 % 0 mm
15:12 30.2 °C 9.7 °C 1010 hPa North 9.8 km/h 18.5 km/h 28 % 0 mm
15:17 30.4 °C 9.3 °C 1009.7 hPa North 7.7 km/h 18.5 km/h 27 % 0 mm
15:22 30.3 °C 9.2 °C 1009.7 hPa NNE 7.6 km/h 22.2 km/h 27 % 0 mm
15:27 30.4 °C 9.3 °C 1009.7 hPa NNE 21.1 km/h 21.1 km/h 27 % 0 mm
15:32 30.3 °C 9.2 °C 1009.4 hPa NNE 17.5 km/h 31.5 km/h 27 % 0 mm
15:37 30.3 °C 9.2 °C 1009.4 hPa North 11.9 km/h 22.2 km/h 27 % 0 mm
15:42 30.6 °C 8.9 °C 1009.4 hPa North 15.8 km/h 18.5 km/h 26 % 0 mm
15:48 30.9 °C 9.2 °C 1009.4 hPa North 15.8 km/h 31.5 km/h 26 % 0 mm
15:53 30.8 °C 8.5 °C 1009 hPa North 16.3 km/h 24.1 km/h 25 % 0 mm
15:58 30.7 °C 8.4 °C 1009 hPa North 11.1 km/h 16.7 km/h 25 % 0 mm
16:03 30.8 °C 9.1 °C 1009 hPa NNE 9.5 km/h 16.7 km/h 26 % 0 mm
16:07 31 °C 8.7 °C 1009 hPa North 13.7 km/h 22.2 km/h 25 % 0 mm
16:12 30.9 °C 9.2 °C 1009 hPa North 17.9 km/h 27.8 km/h 26 % 0 mm
16:18 31 °C 8.7 °C 1008.7 hPa North 12.9 km/h 24.1 km/h 25 % 0 mm
16:22 31.2 °C 8.8 °C 1008.7 hPa NW 16.1 km/h 18.5 km/h 25 % 0 mm
16:28 30.9 °C 8.6 °C 1008.7 hPa North 12.1 km/h 22.2 km/h 25 % 0 mm
16:33 31.1 °C 8.7 °C 1008.7 hPa NNW 15.1 km/h 18.5 km/h 25 % 0 mm
16:38 30.9 °C 8.6 °C 1008.4 hPa North 13.8 km/h 22.2 km/h 25 % 0 mm
16:43 31 °C 8.7 °C 1008.4 hPa North 18.8 km/h 18.8 km/h 25 % 0 mm
16:48 31.1 °C 8.8 °C 1008.4 hPa NW 13.5 km/h 19.3 km/h 25 % 0 mm
16:53 31 °C 8.1 °C 1008.4 hPa North 16.4 km/h 24.1 km/h 24 % 0 mm
16:58 30.9 °C 8.6 °C 1008.4 hPa NNE 13.7 km/h 25.9 km/h 25 % 0 mm
17:03 30.9 °C 8.6 °C 1008.4 hPa NNE 9.2 km/h 14.8 km/h 25 % 0 mm
17:08 31.1 °C 8.1 °C 1008 hPa NNW 15.1 km/h 24.1 km/h 24 % 0 mm
17:13 31.2 °C 7.6 °C 1008 hPa NNW 11.9 km/h 18.5 km/h 23 % 0 mm
17:18 31.2 °C 7.6 °C 1008 hPa NNW 16.3 km/h 25.9 km/h 23 % 0 mm
17:23 31.2 °C 8.2 °C 1008 hPa North 15.1 km/h 24.1 km/h 24 % 0 mm
17:28 31 °C 8.7 °C 1008 hPa North 16.1 km/h 25.9 km/h 25 % 0 mm
17:33 30.9 °C 8 °C 1007.7 hPa North 12.6 km/h 22.2 km/h 24 % 0 mm
17:38 31.1 °C 8.2 °C 1007.7 hPa North 21.6 km/h 27.8 km/h 24 % 0 mm
17:43 31.2 °C 8.2 °C 1007.7 hPa NNW 11.7 km/h 18.5 km/h 24 % 0 mm
17:48 31 °C 8.1 °C 1007.7 hPa NNE 16.6 km/h 24.1 km/h 24 % 0 mm
17:53 31 °C 8.1 °C 1007.7 hPa NNE 16.1 km/h 24.1 km/h 24 % 0 mm
17:58 31 °C 8.1 °C 1007.7 hPa NNW 14.6 km/h 22.2 km/h 24 % 0 mm
18:03 31 °C 8.1 °C 1007.7 hPa North 12.1 km/h 22.2 km/h 24 % 0 mm
18:37 30.8 °C 7.9 °C 1007.7 hPa North 16.7 km/h 16.7 km/h 24 % 0 mm
18:42 30.7 °C 7.8 °C 1007.7 hPa NNE 17.7 km/h 29.6 km/h 24 % 0 mm
18:47 30.6 °C 8.3 °C 1007.7 hPa NNE 12.7 km/h 29.6 km/h 25 % 0 mm
18:52 30.6 °C 7.7 °C 1007.7 hPa NNE 12.1 km/h 16.7 km/h 24 % 0 mm
18:57 30.6 °C 7.7 °C 1007.7 hPa North 10.1 km/h 18.5 km/h 24 % 0 mm
19:02 30.6 °C 7.7 °C 1007.7 hPa North 11.4 km/h 22.5 km/h 24 % 0 mm
19:07 30.4 °C 7.6 °C 1007.7 hPa NNE 10.1 km/h 14.8 km/h 24 % 0 mm
19:12 30.4 °C 7.6 °C 1007.7 hPa North 16.1 km/h 25.9 km/h 24 % 0 mm
19:17 30.2 °C 7.9 °C 1007.7 hPa North 16.1 km/h 24.1 km/h 25 % 0 mm
19:23 30.1 °C 7.9 °C 1007.3 hPa NNW 14.8 km/h 22.2 km/h 25 % 0 mm
19:28 29.9 °C 7.8 °C 1007.3 hPa NNE 11.9 km/h 13 km/h 25 % 0 mm
19:33 29.8 °C 7.7 °C 1007.3 hPa North 10.3 km/h 18.5 km/h 25 % 0 mm
19:38 29.7 °C 8.2 °C 1007.3 hPa NE 11.6 km/h 19.3 km/h 26 % 0 mm
19:43 29.5 °C 8 °C 1007.3 hPa NNE 11.9 km/h 16.7 km/h 26 % 0 mm
19:48 29.4 °C 7.9 °C 1007.7 hPa NNE 12.2 km/h 16.7 km/h 26 % 0 mm
19:53 29.3 °C 7.8 °C 1007.7 hPa North 13.4 km/h 18.5 km/h 26 % 0 mm
19:58 29.2 °C 7.7 °C 1007.7 hPa North 8 km/h 11.1 km/h 26 % 0 mm
20:03 28.9 °C 8 °C 1007.7 hPa North 8.2 km/h 16.7 km/h 27 % 0 mm
20:08 28.7 °C 7.8 °C 1007.7 hPa NNE 9.2 km/h 16.1 km/h 27 % 0 mm
20:13 28.5 °C 7.7 °C 1007.7 hPa NNE 5.6 km/h 11.1 km/h 27 % 0 mm
20:18 28.3 °C 7.6 °C 1007.7 hPa North 12.1 km/h 18.5 km/h 27 % 0 mm
20:23 28.2 °C 7.4 °C 1007.7 hPa North 9.5 km/h 11.1 km/h 27 % 0 mm
20:24 28.2 °C 7.9 °C 1007.7 hPa North 6.3 km/h 9.3 km/h 28 % 0 mm
20:29 27.9 °C 7.7 °C 1007.7 hPa North 5.3 km/h 8 km/h 28 % 0 mm
20:34 27.7 °C 7.6 °C 1007.7 hPa North 2.9 km/h 5.6 km/h 28 % 0 mm
20:39 27.4 °C 7.8 °C 1007.7 hPa North 3.2 km/h 5.6 km/h 29 % 0 mm
20:44 27.2 °C 7.6 °C 1007.7 hPa North 3.7 km/h 5.6 km/h 29 % 0 mm
20:49 26.9 °C 7.8 °C 1007.7 hPa North 4.2 km/h 7.4 km/h 30 % 0 mm
20:54 26.6 °C 7.6 °C 1007.7 hPa North 5.3 km/h 7.4 km/h 30 % 0 mm
20:59 26.4 °C 7.9 °C 1007.7 hPa North 6.8 km/h 9.3 km/h 31 % 0 mm
21:04 26.3 °C 7.8 °C 1007.7 hPa North 2.6 km/h 5.6 km/h 31 % 0 mm
21:09 26.2 °C 8.2 °C 1007.7 hPa North 2.7 km/h 5.6 km/h 32 % 0 mm
21:14 25.9 °C 8 °C 1007.7 hPa North 1 km/h 7.4 km/h 32 % 0 mm
21:19 25.8 °C 8.3 °C 1007.7 hPa North 2.3 km/h 5.6 km/h 33 % 0 mm
21:24 25.7 °C 8.2 °C 1007.7 hPa North 5.8 km/h 7.4 km/h 33 % 0 mm
21:29 25.6 °C 8.1 °C 1007.7 hPa North 5.6 km/h 7.4 km/h 33 % 0 mm
21:34 25.6 °C 8.1 °C 1008 hPa North 5.3 km/h 8 km/h 33 % 0 mm
21:39 25.6 °C 8.1 °C 1007.7 hPa North 5 km/h 8 km/h 33 % 0 mm
21:44 25.5 °C 8.1 °C 1007.7 hPa North 5.1 km/h 9.3 km/h 33 % 0 mm
21:49 25.5 °C 8.1 °C 1008 hPa North 5.8 km/h 9.3 km/h 33 % 0 mm
21:54 25.4 °C 7.9 °C 1008 hPa North 4 km/h 9.3 km/h 33 % 0 mm
21:59 25.3 °C 7.9 °C 1007.7 hPa North 5.5 km/h 11.1 km/h 33 % 0 mm
22:04 25.2 °C 8.2 °C 1007.7 hPa North 2.7 km/h 7.4 km/h 34 % 0 mm
22:09 25 °C 8.1 °C 1007.7 hPa North 2.9 km/h 5.6 km/h 34 % 0 mm
22:14 24.8 °C 7.8 °C 1007.7 hPa North 2.6 km/h 5.6 km/h 34 % 0 mm
22:19 24.6 °C 8.1 °C 1007.7 hPa North 2.1 km/h 5.6 km/h 35 % 0 mm
22:24 24.4 °C 8.3 °C 1007.7 hPa North 2.4 km/h 5.6 km/h 36 % 0 mm
22:29 24.2 °C 8.2 °C 1007.7 hPa North 1.4 km/h 5.6 km/h 36 % 0 mm
22:34 24.1 °C 8.1 °C 1007.7 hPa North 3.2 km/h 5.6 km/h 36 % 0 mm
22:39 24 °C 8.4 °C 1007.7 hPa North 3.9 km/h 5.6 km/h 37 % 0 mm
22:44 23.9 °C 8.3 °C 1007.7 hPa North 5 km/h 5.6 km/h 37 % 0 mm
22:49 24.2 °C 8.2 °C 1007.7 hPa North 5.5 km/h 7.4 km/h 36 % 0 mm
22:54 24.3 °C 8.3 °C 1007.3 hPa North 6.1 km/h 9.3 km/h 36 % 0 mm
22:59 24.4 °C 8 °C 1007.3 hPa NE 7.1 km/h 11.1 km/h 35 % 0 mm
23:04 24.6 °C 8.1 °C 1007.3 hPa NNE 6 km/h 13 km/h 35 % 0 mm
23:09 24.7 °C 8.2 °C 1007.3 hPa NNE 6.4 km/h 11.1 km/h 35 % 0 mm
23:14 24.7 °C 8.2 °C 1007.3 hPa NNE 6.8 km/h 13 km/h 35 % 0 mm
23:19 24.8 °C 8.3 °C 1007.3 hPa NNE 10 km/h 14.8 km/h 35 % 0 mm
23:24 24.7 °C 8.2 °C 1007.3 hPa NNE 7.1 km/h 11.1 km/h 35 % 0 mm
23:29 24.7 °C 8.2 °C 1007.3 hPa NNE 9.3 km/h 12.9 km/h 35 % 0 mm
23:34 24.8 °C 8.3 °C 1007 hPa NNE 7.2 km/h 14.8 km/h 35 % 0 mm
23:39 24.7 °C 8.2 °C 1007 hPa NNE 3.9 km/h 14.8 km/h 35 % 0 mm
23:44 24.6 °C 8.1 °C 1006.7 hPa NNE 10.6 km/h 16.7 km/h 35 % 0 mm
23:49 24.6 °C 8.1 °C 1006.7 hPa NNE 7.6 km/h 14.8 km/h 35 % 0 mm
23:54 24.4 °C 8 °C 1006.7 hPa NNE 10.9 km/h 16.1 km/h 35 % 0 mm
23:59 24.3 °C 8.2 °C 1006.3 hPa NNE 5.1 km/h 13 km/h 36 % 0 mm
Ararat Weather
Compliments of Weather Underground - 2.25 mb
Click here to send mail.


ABOUT

Live weather data from Ararat, Victoria, Australia, 3377
Data uploaded from Cumulus every 5 minutes to Weather Underground.
This site then downloads the raw data for formatting and display.
Metric and imperial data can be displayed. Graphs and historical data available.
Includes Sun and Moon times and rain image live from BOM.

Check out Ararat Weather on Facebook, Twitter and Google +

Help support ongoing costs by checking out the ads





Follow @AraratWeather